Bookmark and Share
Track history (hours):
 

Thomson Spirit

Last reported at 2014-Apr-16 21:32 UTC. Time now 2014-Apr-17 09:41 UTC.
Position N 34°36' E 032°25'.

Length 214 m; draft 7.8 m.

Type: Passenger vessel. MMSI: 248368000.

NotesDate/timePositionNaut miles runAvg speedWind from/ knotsBaromVisibWave heightAir tempDewpointWater temp
2014-Apr-16 21:32N 34°36' E 032°25'1414.8
2014-Apr-16 20:33N 34°33' E 032°42'1414.3
2014-Apr-16 19:33N 34°31' E 032°60'8 8.4
2014-Apr-16 18:33N 34°39' E 033°01'0 0.2
2014-Apr-16 17:31N 34°39' E 033°01'0 0.0
2014-Apr-16 16:32N 34°39' E 033°01'0 0.0
2014-Apr-16 15:31N 34°39' E 033°01'0 0.0
2014-Apr-16 14:32N 34°39' E 033°01'0 0.0
2014-Apr-16 13:32N 34°39' E 033°01'0 0.0
2014-Apr-16 12:32N 34°39' E 033°01'0 0.0
2014-Apr-16 11:32N 34°39' E 033°01'0 0.0
2014-Apr-16 10:31N 34°39' E 033°01'0 0.0
2014-Apr-16 09:32N 34°39' E 033°01'0 0.0
2014-Apr-16 08:32N 34°39' E 033°01'0 0.0
2014-Apr-16 07:32N 34°39' E 033°01'0 0.0
2014-Apr-16 06:32N 34°39' E 033°01'0 0.0
2014-Apr-16 05:31N 34°39' E 033°01'0 0.0
2014-Apr-16 04:31N 34°39' E 033°01'6 6.1
2014-Apr-16 03:33N 34°36' E 033°07'1010.3
2014-Apr-16 02:33N 34°27' E 033°14'11714.4
2014-Apr-15 18:28N 32°56' E 034°41'11 0.6
2014-Apr-15 00:32N 32°53' E 034°53'7 7.3
2014-Apr-14 23:34N 32°48' E 034°48'9 8.9
2014-Apr-14 22:33N 32°39' E 034°45'9 8.9
2014-Apr-14 21:33N 32°30' E 034°42'9 9.0
2014-Apr-14 20:33N 32°22' E 034°39'9 8.7
2014-Apr-14 19:33N 32°13' E 034°36'9 8.5
2014-Apr-14 18:32N 32°05' E 034°34'70 2.9
2014-Apr-13 18:19N 32°24' E 033°14'  
2014-Apr-09 21:33N 34°39' E 032°29'1313.4
2014-Apr-09 20:33N 34°35' E 032°45'1413.9
2014-Apr-09 19:33N 34°31' E 033°01'8 7.8
2014-Apr-09 18:33N 34°39' E 033°01'0 0.2
2014-Apr-09 17:32N 34°39' E 033°01'0 0.0
2014-Apr-09 16:31N 34°39' E 033°01'0 0.0
2014-Apr-09 15:32N 34°39' E 033°01'0 0.0
2014-Apr-09 14:31N 34°39' E 033°01'0 0.0
2014-Apr-09 13:32N 34°39' E 033°01'0 0.0
2014-Apr-09 12:32N 34°39' E 033°01'0 0.0
2014-Apr-09 11:32N 34°39' E 033°01'0 0.0
2014-Apr-09 10:31N 34°39' E 033°01'0 0.0
2014-Apr-09 09:32N 34°39' E 033°01'0 0.0
2014-Apr-09 08:32N 34°39' E 033°01'0 0.0
2014-Apr-09 07:31N 34°39' E 033°01'0 0.0
2014-Apr-09 06:32N 34°39' E 033°01'0 0.0
2014-Apr-09 05:32N 34°39' E 033°01'0 0.0
2014-Apr-09 04:31N 34°39' E 033°01'0 0.1
2014-Apr-09 03:31N 34°39' E 033°01'7 7.0
2014-Apr-09 02:33N 34°34' E 033°06'12117.1
2014-Apr-08 19:27N 32°42' E 034°02'1415.7
2014-Apr-08 18:33N 32°29' E 034°09'1616.3
2014-Apr-08 17:33N 32°14' E 034°16'1616.4
2014-Apr-08 16:33N 31°59' E 034°24'1514.7
2014-Apr-08 15:33N 31°50' E 034°38'6 0.2
2014-Apr-07 02:33N 31°53' E 034°32'1010.1
2014-Apr-07 01:33N 31°57' E 034°21'10 9.9
2014-Apr-07 00:33N 32°01' E 034°10'10 9.9
2014-Apr-06 23:33N 32°04' E 033°60'1611.9
2014-Apr-06 22:14N 32°11' E 033°43'1013.9
2014-Apr-06 21:32N 32°16' E 033°33'  

Dump ship's entire track history

sailing weather and tide predictions

Thomson Spirit — 9HA2336 — position and weather